createdAt,value
2018-07-20T00:01:24.952Z,13.30
2018-07-20T00:03:56.555Z,13.20
2018-07-20T00:06:25.109Z,13.20
2018-07-20T00:08:57.393Z,13.20
2018-07-20T00:11:26.045Z,13.10
2018-07-20T00:13:59.199Z,13.10
2018-07-20T00:16:27.722Z,13.10
2018-07-20T00:19:03.658Z,13.10
2018-07-20T00:21:32.288Z,13.10
2018-07-20T00:24:00.831Z,13.00
2018-07-20T00:26:34.115Z,13.00
2018-07-20T00:29:02.621Z,13.00
2018-07-20T00:31:34.941Z,13.00
2018-07-20T00:34:03.528Z,12.90
2018-07-20T00:36:32.121Z,12.90
2018-07-20T00:39:03.568Z,12.90
2018-07-20T00:41:32.420Z,12.90
2018-07-20T00:44:04.433Z,12.80
2018-07-20T00:46:33.040Z,12.80
2018-07-20T00:49:06.231Z,12.70
2018-07-20T00:51:34.821Z,12.70
2018-07-20T00:54:07.098Z,12.70
2018-07-20T00:56:35.634Z,12.70
2018-07-20T00:59:08.057Z,12.60
2018-07-20T01:01:36.636Z,12.60
2018-07-20T01:04:08.891Z,12.60
2018-07-20T01:06:37.484Z,12.50
2018-07-20T01:09:10.643Z,12.50
2018-07-20T01:11:42.112Z,12.50
2018-07-20T01:14:15.152Z,12.40
2018-07-20T01:16:43.814Z,12.40
2018-07-20T01:19:19.666Z,12.40
2018-07-20T01:21:48.280Z,12.40
2018-07-20T01:24:20.642Z,12.30
2018-07-20T01:26:49.185Z,12.30
2018-07-20T01:29:21.426Z,12.30
2018-07-20T01:31:49.954Z,12.30
2018-07-20T01:34:18.503Z,12.20
2018-07-20T01:36:50.947Z,12.20
2018-07-20T01:39:19.475Z,12.20
2018-07-20T01:41:48.010Z,12.20
2018-07-20T01:44:19.562Z,12.10
2018-07-20T01:46:48.134Z,12.10
2018-07-20T01:49:16.688Z,12.10
2018-07-20T01:51:49.110Z,12.10
2018-07-20T01:54:17.728Z,12.00
2018-07-20T01:56:50.001Z,12.00
2018-07-20T01:59:18.599Z,12.00
2018-07-20T02:01:54.419Z,12.00
2018-07-20T02:04:23.000Z,11.90
2018-07-20T02:06:54.455Z,11.90
2018-07-20T02:09:23.025Z,12.00
2018-07-20T02:11:51.534Z,12.00
2018-07-20T02:14:22.971Z,12.30
2018-07-20T02:16:54.701Z,12.30
2018-07-20T02:19:30.183Z,12.20
2018-07-20T02:21:58.726Z,12.20
2018-07-20T02:24:31.185Z,12.10
2018-07-20T02:26:59.685Z,12.10
2018-07-20T02:29:32.024Z,12.10
2018-07-20T02:32:00.626Z,12.10
2018-07-20T02:34:32.830Z,12.10
2018-07-20T02:37:01.382Z,12.00
2018-07-20T02:39:29.912Z,12.00
2018-07-20T02:42:01.500Z,12.00
2018-07-20T02:44:30.123Z,11.90
2018-07-20T02:47:03.312Z,11.90
2018-07-20T02:49:32.029Z,11.90
2018-07-20T02:52:05.098Z,11.90
2018-07-20T02:54:33.689Z,11.90
2018-07-20T02:57:05.955Z,11.80
2018-07-20T03:00:05.516Z,11.80
2018-07-20T03:02:37.601Z,11.70
2018-07-20T03:05:06.176Z,11.80
2018-07-20T03:07:34.691Z,11.70
2018-07-20T03:10:07.185Z,11.70
2018-07-20T03:12:35.748Z,11.60
2018-07-20T03:15:07.987Z,11.60
2018-07-20T03:17:36.653Z,11.60
2018-07-20T03:20:24.335Z,11.60
2018-07-20T03:22:52.927Z,11.70
2018-07-20T03:25:25.195Z,11.60
2018-07-20T03:27:53.806Z,11.60
2018-07-20T03:30:26.033Z,11.70
2018-07-20T03:32:54.688Z,11.60
2018-07-20T03:35:26.911Z,11.70
2018-07-20T03:37:55.450Z,11.70
2018-07-20T03:40:24.017Z,11.60
2018-07-20T03:42:55.543Z,11.60
2018-07-20T03:45:24.113Z,11.70
2018-07-20T03:47:57.315Z,11.70
2018-07-20T03:50:25.842Z,11.80
2018-07-20T03:52:59.107Z,11.70
2018-07-20T03:55:27.712Z,11.90
2018-07-20T03:58:00.065Z,11.90
2018-07-20T04:00:28.607Z,11.80
2018-07-20T04:03:00.928Z,11.90
2018-07-20T04:05:29.495Z,11.90
2018-07-20T04:07:58.028Z,12.00
2018-07-20T04:10:30.378Z,12.10
2018-07-20T04:12:58.920Z,12.10
2018-07-20T04:15:31.234Z,12.30
2018-07-20T04:17:59.764Z,12.50
2018-07-20T04:20:35.735Z,12.70
2018-07-20T04:23:04.318Z,13.00
2018-07-20T04:25:32.851Z,13.10
2018-07-20T04:28:05.333Z,13.20
2018-07-20T04:30:33.922Z,13.20
2018-07-20T04:33:07.101Z,13.50
2018-07-20T04:35:35.625Z,13.50
2018-07-20T04:38:04.192Z,13.80
2018-07-20T04:40:35.599Z,13.90
2018-07-20T04:43:04.123Z,14.00
2018-07-20T04:48:35.054Z,14.20
2018-07-20T04:51:03.522Z,14.30
2018-07-20T04:53:31.985Z,14.50
2018-07-20T04:56:03.596Z,14.50
2018-07-20T04:58:32.028Z,14.60
2018-07-20T05:01:00.581Z,14.80
2018-07-20T05:03:33.215Z,15.00
2018-07-20T05:06:01.750Z,15.10
2018-07-20T05:08:34.086Z,15.50
2018-07-20T05:11:02.542Z,15.60
2018-07-20T05:13:30.992Z,15.80
2018-07-20T05:16:02.705Z,15.80
2018-07-20T05:18:31.181Z,15.90
2018-07-20T05:21:07.175Z,16.00
2018-07-20T05:23:35.880Z,16.10
2018-07-20T05:26:08.104Z,16.20
2018-07-20T05:28:36.697Z,16.30
2018-07-20T05:31:09.257Z,16.30
2018-07-20T05:33:37.852Z,16.40
2018-07-20T05:36:09.848Z,16.50
2018-07-20T05:38:38.323Z,16.70
2018-07-20T05:41:10.658Z,16.70
2018-07-20T05:43:39.415Z,16.70
2018-07-20T05:46:11.585Z,16.60
2018-07-20T05:48:40.057Z,16.60
2018-07-20T05:51:19.710Z,16.50
2018-07-20T05:53:51.948Z,16.50
2018-07-20T05:56:24.232Z,16.60
2018-07-20T05:58:52.703Z,16.70
2018-07-20T06:01:25.106Z,16.80
2018-07-20T06:06:21.827Z,17.10
2018-07-20T06:08:53.659Z,17.20
2018-07-20T06:11:22.153Z,17.30
2018-07-20T06:13:50.679Z,17.30
2018-07-20T06:16:23.150Z,17.40
2018-07-20T06:18:51.658Z,17.60
2018-07-20T06:21:27.734Z,17.70
2018-07-20T06:23:56.358Z,17.70
2018-07-20T06:26:28.615Z,17.80
2018-07-20T06:28:57.489Z,17.90
2018-07-20T06:31:31.287Z,17.80
2018-07-20T06:33:59.792Z,17.90
2018-07-20T06:36:32.141Z,18.00
2018-07-20T06:39:00.679Z,18.10
2018-07-20T06:41:29.188Z,18.20
2018-07-20T06:44:00.776Z,18.30
2018-07-20T06:46:29.319Z,18.30
2018-07-20T06:48:57.779Z,18.40
2018-07-20T06:51:30.433Z,18.60
2018-07-20T06:53:58.938Z,18.70
2018-07-20T06:56:31.212Z,18.70
2018-07-20T06:58:59.729Z,18.80
2018-07-20T07:01:28.277Z,18.90
2018-07-20T07:03:59.848Z,19.10
2018-07-20T07:06:28.996Z,19.10
2018-07-20T07:09:00.697Z,19.10
2018-07-20T07:11:29.261Z,19.30
2018-07-20T07:13:57.754Z,19.20
2018-07-20T07:16:30.217Z,19.40
2018-07-20T07:18:58.821Z,19.60
2018-07-20T07:21:38.668Z,19.80
2018-07-20T07:24:08.177Z,19.90
2018-07-20T07:26:40.085Z,20.10
2018-07-20T07:29:08.656Z,20.50
2018-07-20T07:31:44.579Z,20.70
2018-07-20T07:34:13.055Z,20.90
2018-07-20T07:36:45.435Z,21.30
2018-07-20T07:39:13.919Z,21.60
2018-07-20T07:41:47.227Z,21.50
2018-07-20T07:44:15.731Z,21.90
2018-07-20T07:46:48.204Z,22.40
2018-07-20T07:49:16.749Z,22.70
2018-07-20T07:51:45.213Z,23.00
2018-07-20T07:56:45.178Z,22.90
2018-07-20T07:59:13.816Z,23.20
2018-07-20T08:04:45.886Z,23.80
2018-07-20T08:07:17.927Z,24.20
2018-07-20T08:09:46.501Z,24.60
2018-07-20T08:12:14.917Z,25.00
2018-07-20T08:14:47.490Z,24.60
2018-07-20T08:17:16.068Z,24.80
2018-07-20T08:19:48.348Z,25.00
2018-07-20T08:22:20.024Z,25.30
2018-07-20T08:24:51.864Z,25.70
2018-07-20T08:27:20.339Z,25.50
2018-07-20T08:29:48.831Z,25.90
2018-07-20T08:32:21.415Z,25.80
2018-07-20T08:34:49.954Z,25.80
2018-07-20T08:37:25.942Z,25.60
2018-07-20T08:39:54.621Z,25.80
2018-07-20T08:42:26.823Z,26.40
2018-07-20T08:44:55.344Z,26.60
2018-07-20T08:47:23.853Z,26.40
2018-07-20T08:49:56.353Z,26.80
2018-07-20T08:52:24.850Z,26.40
2018-07-20T08:54:57.236Z,26.50
2018-07-20T08:57:25.767Z,27.20
2018-07-20T08:59:54.308Z,27.10
2018-07-20T09:02:25.867Z,27.10
2018-07-20T09:04:54.480Z,27.70
2018-07-20T09:07:26.681Z,27.60
2018-07-20T09:09:55.238Z,27.70
2018-07-20T09:12:23.767Z,28.20
2018-07-20T09:14:56.177Z,28.20
2018-07-20T09:17:24.742Z,27.60
2018-07-20T09:19:57.137Z,27.00
2018-07-20T09:22:29.679Z,27.50
2018-07-20T09:25:02.494Z,27.70
2018-07-20T09:27:31.081Z,27.80
2018-07-20T09:30:04.275Z,28.40
2018-07-20T09:32:32.918Z,28.90
2018-07-20T09:35:05.191Z,28.60
2018-07-20T09:37:33.818Z,28.70
2018-07-20T09:40:05.990Z,29.20
2018-07-20T09:42:34.504Z,28.40
2018-07-20T09:45:03.074Z,28.30
2018-07-20T09:47:35.549Z,28.30
2018-07-20T09:50:04.620Z,28.60
2018-07-20T09:52:37.364Z,28.90
2018-07-20T09:55:05.957Z,28.90
2018-07-20T09:57:34.438Z,29.10
2018-07-20T10:00:05.943Z,29.60
2018-07-20T10:02:34.474Z,29.40
2018-07-20T10:05:06.924Z,29.50
2018-07-20T10:07:35.455Z,29.70
2018-07-20T10:10:08.600Z,29.80
2018-07-20T10:12:37.187Z,29.70
2018-07-20T10:15:10.383Z,29.40
2018-07-20T10:20:17.619Z,30.00
2018-07-20T10:22:49.268Z,29.90
2018-07-20T10:25:21.125Z,29.40
2018-07-20T10:27:49.674Z,29.70
2018-07-20T10:30:21.981Z,29.80
2018-07-20T10:32:50.724Z,29.40
2018-07-20T10:35:22.916Z,29.10
2018-07-20T10:37:51.595Z,29.20
2018-07-20T10:40:23.783Z,29.60
2018-07-20T10:42:52.445Z,30.40
2018-07-20T10:45:25.559Z,30.70
2018-07-20T10:47:54.190Z,30.20
2018-07-20T10:50:26.516Z,30.60
2018-07-20T10:52:55.156Z,29.60
2018-07-20T10:55:28.518Z,30.60
2018-07-20T10:57:57.594Z,30.80
2018-07-20T11:00:29.226Z,30.80
2018-07-20T11:02:57.793Z,30.60
2018-07-20T11:05:30.047Z,30.40
2018-07-20T11:07:58.942Z,30.60
2018-07-20T11:10:31.036Z,30.90
2018-07-20T11:12:59.677Z,30.80
2018-07-20T11:15:31.743Z,30.90
2018-07-20T11:18:00.294Z,31.20
2018-07-20T11:20:28.812Z,31.30
2018-07-20T11:23:04.999Z,31.60
2018-07-20T11:25:33.483Z,31.40
2018-07-20T11:28:02.044Z,31.50
2018-07-20T11:30:34.434Z,31.30
2018-07-20T11:33:03.026Z,31.10
2018-07-20T11:35:35.297Z,31.30
2018-07-20T11:38:03.844Z,31.00
2018-07-20T11:40:36.487Z,31.50
2018-07-20T11:43:04.955Z,31.40
2018-07-20T11:45:37.049Z,31.20
2018-07-20T11:48:05.575Z,31.40
2018-07-20T11:50:34.127Z,31.60
2018-07-20T11:53:06.745Z,31.70
2018-07-20T11:55:35.567Z,32.00
2018-07-20T12:00:37.482Z,32.30
2018-07-20T12:03:09.250Z,32.40
2018-07-20T12:05:37.944Z,32.20
2018-07-20T12:08:10.105Z,30.50
2018-07-20T12:10:39.041Z,31.20
2018-07-20T12:13:14.633Z,30.90
2018-07-20T12:15:43.261Z,30.90
2018-07-20T12:18:17.349Z,30.70
2018-07-20T12:20:46.548Z,30.70
2018-07-20T12:23:21.804Z,30.60
2018-07-20T12:25:50.321Z,30.20
2018-07-20T12:28:23.655Z,30.10
2018-07-20T12:30:52.092Z,29.80
2018-07-20T12:33:24.515Z,29.70
2018-07-20T12:35:53.056Z,29.80
2018-07-20T12:38:28.942Z,29.60
2018-07-20T12:40:57.418Z,30.20
2018-07-20T12:43:28.989Z,31.00
2018-07-20T12:45:57.491Z,31.10
2018-07-20T12:48:25.965Z,30.00
2018-07-20T12:50:58.417Z,29.60
2018-07-20T12:53:26.964Z,29.50
2018-07-20T12:55:59.298Z,29.90
2018-07-20T12:58:31.116Z,30.50
2018-07-20T13:01:02.980Z,30.10
2018-07-20T13:03:31.536Z,29.80
2018-07-20T13:06:03.768Z,30.50
2018-07-20T13:08:32.337Z,29.90
2018-07-20T13:11:07.971Z,30.10
2018-07-20T13:13:36.455Z,30.10
2018-07-20T13:16:08.278Z,30.10
2018-07-20T13:18:36.777Z,30.70
2018-07-20T13:21:12.873Z,30.90
2018-07-20T13:23:44.658Z,31.60
2018-07-20T13:26:17.394Z,31.10
2018-07-20T13:28:46.052Z,30.70
2018-07-20T13:31:18.249Z,30.00
2018-07-20T13:33:47.291Z,30.00
2018-07-20T13:36:18.987Z,29.80
2018-07-20T13:38:47.460Z,29.70
2018-07-20T13:41:15.924Z,29.50
2018-07-20T13:43:48.536Z,29.40
2018-07-20T13:46:16.996Z,29.70
2018-07-20T13:48:50.375Z,29.40
2018-07-20T13:53:47.033Z,30.30
2018-07-20T13:56:18.882Z,30.00
2018-07-20T13:58:48.727Z,30.50
2018-07-20T14:01:26.227Z,30.00
2018-07-20T14:03:54.770Z,29.40
2018-07-20T14:06:23.248Z,29.30
2018-07-20T14:08:55.655Z,29.30
2018-07-20T14:11:24.217Z,29.60
2018-07-20T14:14:02.157Z,29.60
2018-07-20T14:16:30.658Z,29.00
2018-07-20T14:19:02.951Z,28.90
2018-07-20T14:21:31.533Z,28.90
2018-07-20T14:24:07.492Z,29.80
2018-07-20T14:26:36.039Z,30.10
2018-07-20T14:31:36.907Z,30.30
2018-07-20T14:34:09.104Z,29.70
2018-07-20T14:36:37.560Z,29.60
2018-07-20T14:39:13.558Z,29.60
2018-07-20T14:41:42.391Z,29.70
2018-07-20T14:44:15.395Z,30.10
2018-07-20T14:46:43.921Z,30.50
2018-07-20T14:49:12.456Z,30.50
2018-07-20T14:51:44.067Z,30.50
2018-07-20T14:54:12.593Z,30.80
2018-07-20T14:56:46.895Z,31.10
2018-07-20T14:59:15.485Z,31.30
2018-07-20T15:01:51.311Z,31.10
2018-07-20T15:04:27.664Z,30.90
2018-07-20T15:06:56.228Z,30.80
2018-07-20T15:09:28.135Z,30.70
2018-07-20T15:11:56.655Z,31.50
2018-07-20T15:14:25.149Z,31.60
2018-07-20T15:16:57.541Z,30.90
2018-07-20T15:19:26.160Z,31.30
2018-07-20T15:21:58.425Z,31.50
2018-07-20T15:24:30.206Z,30.90
2018-07-20T15:27:02.039Z,30.60
2018-07-20T15:29:30.648Z,30.90
2018-07-20T15:32:02.936Z,30.50
2018-07-20T15:34:31.418Z,30.50
2018-07-20T15:37:00.027Z,30.40
2018-07-20T15:39:36.179Z,29.70
2018-07-20T15:42:04.705Z,29.60
2018-07-20T15:44:36.909Z,29.20
2018-07-20T15:47:05.619Z,29.20
2018-07-20T15:49:38.782Z,29.50
2018-07-20T15:54:40.561Z,29.10
2018-07-20T15:57:09.077Z,28.50
2018-07-20T15:59:37.526Z,28.50
2018-07-20T16:02:09.989Z,28.40
2018-07-20T16:04:39.004Z,28.30
2018-07-20T16:07:10.844Z,28.00
2018-07-20T16:09:39.301Z,27.80
2018-07-20T16:12:07.797Z,27.70
2018-07-20T16:14:40.430Z,27.50
2018-07-20T16:17:08.943Z,27.40
2018-07-20T16:19:37.517Z,27.10
2018-07-20T16:22:09.034Z,27.00
2018-07-20T16:24:41.581Z,26.90
2018-07-20T16:27:14.401Z,26.90
2018-07-20T16:29:42.946Z,26.80
2018-07-20T16:32:15.399Z,26.70
2018-07-20T16:34:51.396Z,26.50
2018-07-20T16:37:28.029Z,26.50
2018-07-20T16:39:56.651Z,26.40
2018-07-20T16:42:29.706Z,26.20
2018-07-20T16:44:58.217Z,26.10
2018-07-20T16:47:30.672Z,26.10
2018-07-20T16:49:59.320Z,26.10
2018-07-20T16:52:31.455Z,25.90
2018-07-20T16:55:00.048Z,25.90
2018-07-20T16:57:28.546Z,25.70
2018-07-20T17:00:00.122Z,25.70
2018-07-20T17:02:28.895Z,25.60
2018-07-20T17:05:01.123Z,25.60
2018-07-20T17:07:29.677Z,25.50
2018-07-20T17:09:58.130Z,25.40
2018-07-20T17:12:30.535Z,25.30
2018-07-20T17:14:59.551Z,25.30
2018-07-20T17:17:31.387Z,25.40
2018-07-20T17:19:59.824Z,25.30
2018-07-20T17:22:28.285Z,25.20
2018-07-20T17:25:07.193Z,25.10
2018-07-20T17:27:35.661Z,25.10
2018-07-20T17:32:36.519Z,24.80
2018-07-20T17:35:05.060Z,24.80
2018-07-20T17:37:37.605Z,24.80
2018-07-20T17:40:06.446Z,24.70
2018-07-20T17:42:38.490Z,24.70
2018-07-20T17:45:06.987Z,24.60
2018-07-20T17:47:35.473Z,24.50
2018-07-20T17:50:07.026Z,24.40
2018-07-20T17:52:35.484Z,24.10
2018-07-20T17:57:36.649Z,24.00
2018-07-20T18:00:05.459Z,23.90
2018-07-20T18:02:38.421Z,23.70
2018-07-20T18:05:07.790Z,23.60
2018-07-20T18:07:39.278Z,23.50
2018-07-20T18:10:08.031Z,23.40
2018-07-20T18:12:40.087Z,23.60
2018-07-20T18:15:08.569Z,23.50
2018-07-20T18:17:37.048Z,23.40
2018-07-20T18:20:09.606Z,23.40
2018-07-20T18:22:38.100Z,23.30
2018-07-20T18:25:14.174Z,23.20
2018-07-20T18:27:43.318Z,23.10
2018-07-20T18:30:15.046Z,23.10
2018-07-20T18:33:09.278Z,22.80
2018-07-20T18:38:46.633Z,22.80
2018-07-20T18:41:18.364Z,22.70
2018-07-20T18:43:47.159Z,22.70
2018-07-20T18:46:19.283Z,22.60
2018-07-20T18:48:47.751Z,22.50
2018-07-20T18:51:16.382Z,22.30
2018-07-20T18:53:48.725Z,22.30
2018-07-20T18:56:17.362Z,22.20
2018-07-20T18:58:49.614Z,22.00
2018-07-20T19:01:18.604Z,22.00
2018-07-20T19:03:50.499Z,21.90
2018-07-20T19:06:19.029Z,21.80
2018-07-20T19:08:47.571Z,21.80
2018-07-20T19:11:19.235Z,21.60
2018-07-20T19:13:47.877Z,21.50
2018-07-20T19:16:20.110Z,21.40
2018-07-20T19:18:48.597Z,21.40
2018-07-20T19:21:17.056Z,21.30
2018-07-20T19:23:49.553Z,21.20
2018-07-20T19:26:21.408Z,21.10
2018-07-20T19:28:53.300Z,21.00
2018-07-20T19:31:21.812Z,21.00
2018-07-20T19:33:50.304Z,20.80
2018-07-20T19:36:22.668Z,20.80
2018-07-20T19:38:51.202Z,20.70
2018-07-20T19:41:19.711Z,20.70
2018-07-20T19:43:52.159Z,20.60
2018-07-20T19:46:20.702Z,20.50
2018-07-20T19:48:53.006Z,20.40
2018-07-20T19:51:21.799Z,20.30
2018-07-20T19:53:54.788Z,20.00
2018-07-20T19:56:23.344Z,20.00
2018-07-20T19:58:55.852Z,20.00
2018-07-20T20:01:24.483Z,19.80
2018-07-20T20:03:56.624Z,19.70
2018-07-20T20:06:25.240Z,19.50
2018-07-20T20:08:53.718Z,19.40
2018-07-20T20:11:25.156Z,19.20
2018-07-20T20:13:53.674Z,19.10
2018-07-20T20:16:26.133Z,19.00
2018-07-20T20:18:54.768Z,18.80
2018-07-20T20:21:27.891Z,18.60
2018-07-20T20:23:56.408Z,18.60
2018-07-20T20:26:32.336Z,18.50
2018-07-20T20:29:00.788Z,18.30
2018-07-20T20:31:29.293Z,18.30
2018-07-20T20:34:01.897Z,18.20
2018-07-20T20:36:30.393Z,18.10
2018-07-20T20:39:02.673Z,18.00
2018-07-20T20:41:31.504Z,17.80
2018-07-20T20:44:04.571Z,17.80
2018-07-20T20:46:33.066Z,17.80
2018-07-20T20:49:01.744Z,17.70
2018-07-20T20:51:33.157Z,17.60
2018-07-20T20:54:01.637Z,17.60
2018-07-20T20:56:30.095Z,17.50
2018-07-20T20:59:02.677Z,17.50
2018-07-20T21:01:32.254Z,17.40
2018-07-20T21:04:04.408Z,17.40
2018-07-20T21:06:34.002Z,17.30
2018-07-20T21:09:06.226Z,17.30
2018-07-20T21:11:34.722Z,17.30
2018-07-20T21:14:07.482Z,17.30
2018-07-20T21:16:37.247Z,17.30
2018-07-20T21:19:09.742Z,17.20
2018-07-20T21:21:38.293Z,17.00
2018-07-20T21:24:10.618Z,17.00
2018-07-20T21:26:42.421Z,17.00
2018-07-20T21:29:14.215Z,17.20
2018-07-20T21:31:42.763Z,17.10
2018-07-20T21:34:11.321Z,16.90
2018-07-20T21:36:43.732Z,16.90
2018-07-20T21:39:13.491Z,16.90
2018-07-20T21:41:50.394Z,16.80
2018-07-20T21:44:18.939Z,16.70
2018-07-20T21:46:51.834Z,16.60
2018-07-20T21:49:20.366Z,16.50
2018-07-20T21:51:52.717Z,16.50
2018-07-20T21:54:22.130Z,16.50
2018-07-20T21:56:53.663Z,16.40
2018-07-20T21:59:22.222Z,16.30
2018-07-20T22:01:50.752Z,16.30
2018-07-20T22:04:22.215Z,16.20
2018-07-20T22:06:50.919Z,16.10
2018-07-20T22:09:23.996Z,16.10
2018-07-20T22:11:52.573Z,16.00
2018-07-20T22:14:24.828Z,16.00
2018-07-20T22:16:53.343Z,15.90
2018-07-20T22:19:25.782Z,15.80
2018-07-20T22:21:54.285Z,15.80
2018-07-20T22:24:22.819Z,15.70
2018-07-20T22:26:58.939Z,15.60
2018-07-20T22:29:27.769Z,15.60
2018-07-20T22:32:00.730Z,15.60
2018-07-20T22:34:29.240Z,15.60
2018-07-20T22:36:57.729Z,15.60
2018-07-20T22:39:29.248Z,15.50
2018-07-20T22:42:00.787Z,15.40
2018-07-20T22:44:33.815Z,15.40
2018-07-20T22:47:02.316Z,15.30
2018-07-20T22:49:34.630Z,15.30
2018-07-20T22:52:03.473Z,15.20
2018-07-20T22:54:35.496Z,15.20
2018-07-20T22:57:04.024Z,15.10
2018-07-20T22:59:32.577Z,15.10
2018-07-20T23:02:04.281Z,15.00
2018-07-20T23:04:32.792Z,14.90
2018-07-20T23:07:06.021Z,14.90
2018-07-20T23:09:34.514Z,14.90
2018-07-20T23:12:06.872Z,14.80
2018-07-20T23:14:35.366Z,14.70
2018-07-20T23:17:07.738Z,14.70
2018-07-20T23:19:36.220Z,14.70
2018-07-20T23:22:04.778Z,14.60
2018-07-20T23:24:40.370Z,14.60
2018-07-20T23:27:11.716Z,14.60
2018-07-20T23:29:43.558Z,14.50
2018-07-20T23:32:12.077Z,14.40
2018-07-20T23:34:40.575Z,14.40
2018-07-20T23:37:12.212Z,14.30
2018-07-20T23:39:44.773Z,14.20
2018-07-20T23:42:16.733Z,14.20
2018-07-20T23:44:45.213Z,14.10
2018-07-20T23:47:13.732Z,14.10
2018-07-20T23:49:45.261Z,14.20
2018-07-20T23:52:13.778Z,14.10
2018-07-20T23:54:42.296Z,14.00
2018-07-20T23:57:18.421Z,14.00
2018-07-20T23:59:46.944Z,14.00
